Terminal Aerodrome Forecast
Issued by NWS

Home | Current Version | Previous Version | Text Only | Print | Product List | Glossary On
Versions: 1 2 3 4 5 6 7 8 9 10 11 12 13
000
FTUS42 TJSJ 220500
TAFISX
TAF
TISX 220520Z 2206/2306 04005KT P6SM -RA SCT025 SCT040 SCT100
      TEMPO 2207/2211 VRB12KT -SHRA BKN022
     FM221330 09012KT P6SM VCSH SCT025 BKN050 BKN100 PROB30
      2218/2222 VRB12G20KT 3SM +SHRA BKN022
     FM222230 07012KT P6SM -RA SCT025 BKN050 BKN100=

USA.gov is the U.S. government's official web portal to all federal, state and local government web resources and services.